SWA1481 KRDU-KBWI
Flight info
| Callsign | SWA1481 |
|---|---|
| Flight time | 0h 47m |
| Altitude | 29000 |
| Route | BEXGO5 BOUSY THHMP RAVNN8 |
| Aircraft | B738/M-SDE2E3FGHIRWXY/LB1 |
Departure
| Time | 2026-05-07 00:17 |
|---|---|
| Airport | Raleigh-Durham International Airport (KRDU) |
Arrival
| Time | 2026-05-07 01:04 |
|---|---|
| Airport | Baltimore/Washington International Thurgood Marshall Airport (KBWI) |
| Time | Latitude | Longitude | Altitude | Speed | Heading |
|---|---|---|---|---|---|
| 2026-05-06 23:52 | 35.87393 | -78.78948 | 434 ft | 0 kts | 304° |
| 2026-05-07 00:07 | 35.87389 | -78.78941 | 434 ft | 4 kts | 303° |
| 2026-05-07 00:07 | 35.87376 | -78.78914 | 422 ft | 4 kts | 296° |
| 2026-05-07 00:07 | 35.87362 | -78.78878 | 429 ft | 4 kts | 302° |
| 2026-05-07 00:08 | 35.87354 | -78.78865 | 431 ft | 4 kts | 322° |
| 2026-05-07 00:08 | 35.87337 | -78.78855 | 431 ft | 4 kts | 355° |
| 2026-05-07 00:08 | 35.87316 | -78.78869 | 422 ft | 4 kts | 61° |
| 2026-05-07 00:08 | 35.87306 | -78.78886 | 434 ft | 0 kts | 45° |
| 2026-05-07 00:11 | 35.87307 | -78.78886 | 434 ft | 0 kts | 45° |
| 2026-05-07 00:11 | 35.87328 | -78.78860 | 427 ft | 6 kts | 45° |
| 2026-05-07 00:12 | 35.87371 | -78.78805 | 430 ft | 11 kts | 45° |
| 2026-05-07 00:12 | 35.87437 | -78.78723 | 430 ft | 15 kts | 46° |
| 2026-05-07 00:12 | 35.87489 | -78.78649 | 428 ft | 18 kts | 48° |
| 2026-05-07 00:12 | 35.87601 | -78.78536 | 427 ft | 21 kts | 33° |
| 2026-05-07 00:13 | 35.87700 | -78.78433 | 430 ft | 18 kts | 43° |
| 2026-05-07 00:13 | 35.87769 | -78.78325 | 432 ft | 17 kts | 53° |
| 2026-05-07 00:13 | 35.87875 | -78.78183 | 428 ft | 18 kts | 45° |
| 2026-05-07 00:13 | 35.87946 | -78.78096 | 428 ft | 10 kts | 46° |
| 2026-05-07 00:14 | 35.87970 | -78.78044 | 435 ft | 3 kts | 84° |
| 2026-05-07 00:14 | 35.87970 | -78.78033 | 430 ft | 0 kts | 95° |
| 2026-05-07 00:15 | 35.87969 | -78.78030 | 430 ft | 2 kts | 98° |
| 2026-05-07 00:15 | 35.87961 | -78.78007 | 435 ft | 4 kts | 123° |
| 2026-05-07 00:15 | 35.87942 | -78.77983 | 437 ft | 7 kts | 138° |
| 2026-05-07 00:16 | 35.87887 | -78.77978 | 433 ft | 0 kts | 223° |
| 2026-05-07 00:16 | 35.87876 | -78.77991 | 427 ft | 10 kts | 223° |
| 2026-05-07 00:16 | 35.87592 | -78.78341 | 432 ft | 102 kts | 225° |
| 2026-05-07 00:16 | 35.86870 | -78.79237 | 587 ft | 166 kts | 225° |
| 2026-05-07 00:17 | 35.86044 | -78.80286 | 1450 ft | 178 kts | 229° |
| 2026-05-07 00:17 | 35.85459 | -78.81040 | 2148 ft | 183 kts | 227° |
| 2026-05-07 00:17 | 35.84248 | -78.82495 | 3550 ft | 181 kts | 226° |
| 2026-05-07 00:17 | 35.83624 | -78.83209 | 4199 ft | 181 kts | 226° |
| 2026-05-07 00:18 | 35.82366 | -78.84576 | 5454 ft | 181 kts | 226° |
| 2026-05-07 00:18 | 35.81322 | -78.85683 | 5790 ft | 208 kts | 226° |
| 2026-05-07 00:18 | 35.80143 | -78.86953 | 6018 ft | 239 kts | 226° |
| 2026-05-07 00:18 | 35.79070 | -78.88125 | 6501 ft | 251 kts | 226° |
| 2026-05-07 00:19 | 35.77529 | -78.89801 | 6937 ft | 254 kts | 226° |
| 2026-05-07 00:19 | 35.76650 | -78.90757 | 6986 ft | 257 kts | 226° |
| 2026-05-07 00:19 | 35.75252 | -78.92278 | 6988 ft | 256 kts | 226° |
| 2026-05-07 00:19 | 35.73888 | -78.93754 | 7045 ft | 252 kts | 226° |
| 2026-05-07 00:20 | 35.72594 | -78.95147 | 7363 ft | 254 kts | 226° |
| 2026-05-07 00:20 | 35.71275 | -78.96595 | 7703 ft | 258 kts | 227° |
| 2026-05-07 00:20 | 35.69961 | -78.98101 | 7991 ft | 258 kts | 227° |
| 2026-05-07 00:20 | 35.68663 | -78.99599 | 7982 ft | 258 kts | 227° |
| 2026-05-07 00:21 | 35.67341 | -79.01134 | 8001 ft | 259 kts | 228° |
| 2026-05-07 00:21 | 35.66035 | -79.02654 | 8002 ft | 260 kts | 228° |
| 2026-05-07 00:21 | 35.65173 | -79.03657 | 8003 ft | 259 kts | 228° |
| 2026-05-07 00:21 | 35.63870 | -79.06119 | 8013 ft | 249 kts | 259° |
| 2026-05-07 00:22 | 35.63943 | -79.08267 | 8045 ft | 251 kts | 287° |
| 2026-05-07 00:22 | 35.64944 | -79.10058 | 8460 ft | 264 kts | 314° |
| 2026-05-07 00:22 | 35.66688 | -79.11147 | 8850 ft | 285 kts | 341° |
| 2026-05-07 00:22 | 35.68648 | -79.11442 | 9286 ft | 293 kts | 350° |
| 2026-05-07 00:23 | 35.70738 | -79.11159 | 9604 ft | 310 kts | 14° |
| 2026-05-07 00:23 | 35.72707 | -79.09713 | 10010 ft | 322 kts | 38° |
| 2026-05-07 00:23 | 35.74237 | -79.07839 | 10398 ft | 324 kts | 43° |
| 2026-05-07 00:23 | 35.75807 | -79.05768 | 10761 ft | 339 kts | 43° |
| 2026-05-07 00:24 | 35.77014 | -79.04163 | 11049 ft | 352 kts | 44° |
| 2026-05-07 00:24 | 35.79202 | -79.01255 | 11534 ft | 373 kts | 44° |
| 2026-05-07 00:24 | 35.81279 | -78.98497 | 11966 ft | 390 kts | 44° |
| 2026-05-07 00:24 | 35.82857 | -78.96402 | 11982 ft | 393 kts | 44° |
| 2026-05-07 00:25 | 35.84711 | -78.93938 | 12000 ft | 390 kts | 44° |
| 2026-05-07 00:25 | 35.85959 | -78.92279 | 11994 ft | 391 kts | 44° |
| 2026-05-07 00:25 | 35.88445 | -78.89058 | 11999 ft | 390 kts | 41° |
| 2026-05-07 00:25 | 35.90485 | -78.86583 | 12005 ft | 389 kts | 40° |
| 2026-05-07 00:26 | 35.92528 | -78.84141 | 12001 ft | 389 kts | 40° |
| 2026-05-07 00:26 | 35.93837 | -78.82574 | 12003 ft | 394 kts | 40° |
| 2026-05-07 00:26 | 35.95933 | -78.80053 | 12016 ft | 402 kts | 41° |
| 2026-05-07 00:26 | 35.97910 | -78.77653 | 12005 ft | 403 kts | 41° |
| 2026-05-07 00:27 | 36.00070 | -78.75013 | 11999 ft | 401 kts | 41° |
| 2026-05-07 00:27 | 36.01954 | -78.72702 | 11994 ft | 400 kts | 41° |
| 2026-05-07 00:27 | 36.03853 | -78.70367 | 11995 ft | 399 kts | 41° |
| 2026-05-07 00:27 | 36.05819 | -78.67947 | 11994 ft | 399 kts | 41° |
| 2026-05-07 00:28 | 36.08238 | -78.64968 | 12076 ft | 399 kts | 41° |
| 2026-05-07 00:28 | 36.09817 | -78.63024 | 12430 ft | 402 kts | 41° |
| 2026-05-07 00:28 | 36.11297 | -78.61200 | 12730 ft | 404 kts | 41° |
| 2026-05-07 00:28 | 36.13325 | -78.58699 | 13209 ft | 406 kts | 41° |
| 2026-05-07 00:29 | 36.15318 | -78.56238 | 13678 ft | 408 kts | 41° |
| 2026-05-07 00:29 | 36.17726 | -78.53262 | 14173 ft | 410 kts | 41° |
| 2026-05-07 00:30 | 36.23816 | -78.45725 | 15452 ft | 416 kts | 40° |
| 2026-05-07 00:30 | 36.25870 | -78.43181 | 15897 ft | 419 kts | 40° |
| 2026-05-07 00:30 | 36.27956 | -78.40650 | 16335 ft | 420 kts | 36° |
| 2026-05-07 00:30 | 36.30217 | -78.38363 | 16788 ft | 420 kts | 31° |
| 2026-05-07 00:31 | 36.32579 | -78.36220 | 17256 ft | 422 kts | 29° |
| 2026-05-07 00:31 | 36.34977 | -78.34099 | 17716 ft | 426 kts | 29° |
| 2026-05-07 00:31 | 36.37389 | -78.31942 | 18190 ft | 430 kts | 30° |
| 2026-05-07 00:31 | 36.40074 | -78.29490 | 18650 ft | 434 kts | 30° |
| 2026-05-07 00:32 | 36.42279 | -78.27445 | 19027 ft | 437 kts | 31° |
| 2026-05-07 00:32 | 36.44707 | -78.25175 | 19443 ft | 440 kts | 31° |
| 2026-05-07 00:32 | 36.47190 | -78.22849 | 19894 ft | 443 kts | 31° |
| 2026-05-07 00:32 | 36.49626 | -78.20571 | 20321 ft | 445 kts | 31° |
| 2026-05-07 00:33 | 36.52184 | -78.18173 | 20788 ft | 448 kts | 31° |
| 2026-05-07 00:33 | 36.54664 | -78.15838 | 21240 ft | 451 kts | 31° |
| 2026-05-07 00:33 | 36.56312 | -78.14285 | 21543 ft | 453 kts | 31° |
| 2026-05-07 00:33 | 36.59670 | -78.11114 | 22165 ft | 457 kts | 31° |
| 2026-05-07 00:34 | 36.62270 | -78.08656 | 22642 ft | 459 kts | 31° |
| 2026-05-07 00:34 | 36.63907 | -78.07108 | 22954 ft | 461 kts | 32° |
| 2026-05-07 00:34 | 36.67487 | -78.03719 | 23616 ft | 463 kts | 32° |
| 2026-05-07 00:34 | 36.70033 | -78.01307 | 24019 ft | 465 kts | 32° |
| 2026-05-07 00:35 | 36.72610 | -77.98864 | 24418 ft | 466 kts | 32° |
| 2026-05-07 00:35 | 36.75195 | -77.96411 | 24824 ft | 467 kts | 32° |
| 2026-05-07 00:35 | 36.77783 | -77.93952 | 25194 ft | 469 kts | 32° |
| 2026-05-07 00:35 | 36.80382 | -77.91483 | 25616 ft | 470 kts | 32° |
| 2026-05-07 00:36 | 36.82990 | -77.89022 | 26042 ft | 470 kts | 30° |
| 2026-05-07 00:36 | 36.85653 | -77.86664 | 26477 ft | 469 kts | 28° |
| 2026-05-07 00:36 | 36.88354 | -77.84371 | 26917 ft | 469 kts | 28° |
| 2026-05-07 00:36 | 36.91062 | -77.82103 | 27365 ft | 470 kts | 28° |
| 2026-05-07 00:37 | 36.93780 | -77.79821 | 27809 ft | 470 kts | 28° |
| 2026-05-07 00:37 | 36.96492 | -77.77527 | 28248 ft | 470 kts | 28° |
| 2026-05-07 00:37 | 36.99193 | -77.75224 | 28720 ft | 471 kts | 28° |
| 2026-05-07 00:37 | 37.01910 | -77.72896 | 28938 ft | 476 kts | 28° |
| 2026-05-07 00:38 | 37.07467 | -77.68120 | 28943 ft | 493 kts | 28° |
| 2026-05-07 00:38 | 37.13195 | -77.63176 | 28958 ft | 505 kts | 28° |
| 2026-05-07 00:39 | 37.19005 | -77.58142 | 28946 ft | 507 kts | 28° |
| 2026-05-07 00:39 | 37.24813 | -77.53104 | 28943 ft | 508 kts | 28° |
| 2026-05-07 00:40 | 37.30620 | -77.48062 | 28927 ft | 507 kts | 28° |
| 2026-05-07 00:40 | 37.35442 | -77.43868 | 28926 ft | 506 kts | 28° |
| 2026-05-07 00:41 | 37.42171 | -77.38007 | 28929 ft | 506 kts | 28° |
| 2026-05-07 00:41 | 37.47015 | -77.33783 | 28909 ft | 505 kts | 27° |
| 2026-05-07 00:42 | 37.50065 | -77.31717 | 28868 ft | 489 kts | 11° |
| 2026-05-07 00:42 | 37.53296 | -77.30692 | 28941 ft | 475 kts | 1° |
| 2026-05-07 00:42 | 37.59781 | -77.29296 | 28926 ft | 475 kts | 0° |
| 2026-05-07 00:43 | 37.66343 | -77.27807 | 28927 ft | 478 kts | 1° |
| 2026-05-07 00:43 | 37.72898 | -77.26213 | 28837 ft | 482 kts | 1° |
| 2026-05-07 00:44 | 37.76233 | -77.25357 | 28467 ft | 484 kts | 2° |
| 2026-05-07 00:44 | 37.80051 | -77.24354 | 28131 ft | 486 kts | 2° |
| 2026-05-07 00:44 | 37.82938 | -77.23591 | 27857 ft | 482 kts | 2° |
| 2026-05-07 00:44 | 37.86322 | -77.22701 | 27392 ft | 474 kts | 2° |
| 2026-05-07 00:45 | 37.90138 | -77.21707 | 26689 ft | 468 kts | 1° |
| 2026-05-07 00:45 | 37.92706 | -77.21043 | 26167 ft | 465 kts | 1° |
| 2026-05-07 00:45 | 37.94996 | -77.20447 | 25679 ft | 457 kts | 1° |
| 2026-05-07 00:45 | 37.98989 | -77.19402 | 24798 ft | 443 kts | 1° |
| 2026-05-07 00:46 | 38.01986 | -77.18622 | 24132 ft | 433 kts | 1° |
| 2026-05-07 00:46 | 38.04834 | -77.17879 | 23505 ft | 424 kts | 0° |
| 2026-05-07 00:46 | 38.07695 | -77.17134 | 22737 ft | 416 kts | 1° |
| 2026-05-07 00:46 | 38.10452 | -77.16414 | 21999 ft | 408 kts | 1° |
| 2026-05-07 00:47 | 38.13293 | -77.15671 | 21244 ft | 401 kts | 1° |
| 2026-05-07 00:47 | 38.16012 | -77.14961 | 20524 ft | 395 kts | 1° |
| 2026-05-07 00:47 | 38.18721 | -77.14254 | 19823 ft | 390 kts | 1° |
| 2026-05-07 00:47 | 38.21594 | -77.13502 | 19086 ft | 385 kts | 1° |
| 2026-05-07 00:48 | 38.23996 | -77.12873 | 18477 ft | 381 kts | 2° |
| 2026-05-07 00:48 | 38.26625 | -77.12183 | 17805 ft | 375 kts | 2° |
| 2026-05-07 00:48 | 38.29168 | -77.11516 | 17110 ft | 371 kts | 2° |
| 2026-05-07 00:48 | 38.31696 | -77.10852 | 16425 ft | 367 kts | 3° |
| 2026-05-07 00:49 | 38.34182 | -77.10199 | 15793 ft | 362 kts | 3° |
| 2026-05-07 00:49 | 38.36873 | -77.09286 | 15185 ft | 376 kts | 18° |
| 2026-05-07 00:49 | 38.39046 | -77.07552 | 14773 ft | 385 kts | 30° |
| 2026-05-07 00:49 | 38.41246 | -77.05537 | 14246 ft | 386 kts | 31° |
| 2026-05-07 00:50 | 38.43380 | -77.03583 | 13810 ft | 384 kts | 31° |
| 2026-05-07 00:50 | 38.44818 | -77.02277 | 13472 ft | 382 kts | 31° |
| 2026-05-07 00:50 | 38.47709 | -76.99673 | 12759 ft | 369 kts | 30° |
| 2026-05-07 00:50 | 38.49091 | -76.98438 | 12423 ft | 365 kts | 30° |
| 2026-05-07 00:51 | 38.51503 | -76.96288 | 11839 ft | 361 kts | 30° |
| 2026-05-07 00:51 | 38.53450 | -76.94553 | 11372 ft | 358 kts | 30° |
| 2026-05-07 00:51 | 38.54947 | -76.93207 | 11069 ft | 356 kts | 32° |
| 2026-05-07 00:51 | 38.57329 | -76.90623 | 10746 ft | 351 kts | 39° |
| 2026-05-07 00:52 | 38.58955 | -76.88627 | 10463 ft | 340 kts | 41° |
| 2026-05-07 00:52 | 38.60652 | -76.86511 | 10173 ft | 328 kts | 40° |
| 2026-05-07 00:52 | 38.62578 | -76.84141 | 9920 ft | 324 kts | 40° |
| 2026-05-07 00:52 | 38.63995 | -76.82420 | 9716 ft | 324 kts | 40° |
| 2026-05-07 00:53 | 38.65503 | -76.80603 | 9476 ft | 324 kts | 40° |
| 2026-05-07 00:53 | 38.67202 | -76.78561 | 9209 ft | 324 kts | 39° |
| 2026-05-07 00:53 | 38.68981 | -76.76425 | 9023 ft | 320 kts | 39° |
| 2026-05-07 00:53 | 38.70560 | -76.74456 | 8995 ft | 317 kts | 47° |
| 2026-05-07 00:54 | 38.71779 | -76.71990 | 8874 ft | 322 kts | 60° |
| 2026-05-07 00:54 | 38.72959 | -76.69154 | 8587 ft | 327 kts | 60° |
| 2026-05-07 00:54 | 38.73983 | -76.66724 | 8367 ft | 327 kts | 59° |
| 2026-05-07 00:54 | 38.75030 | -76.64281 | 8082 ft | 318 kts | 59° |
| 2026-05-07 00:55 | 38.75758 | -76.62598 | 7916 ft | 309 kts | 59° |
| 2026-05-07 00:55 | 38.77172 | -76.59456 | 7542 ft | 295 kts | 50° |
| 2026-05-07 00:55 | 38.78704 | -76.57778 | 7197 ft | 279 kts | 22° |
| 2026-05-07 00:55 | 38.80448 | -76.56997 | 6940 ft | 262 kts | 5° |
| 2026-05-07 00:56 | 38.82253 | -76.56522 | 6662 ft | 254 kts | 5° |
| 2026-05-07 00:56 | 38.83391 | -76.56227 | 6473 ft | 251 kts | 5° |
| 2026-05-07 00:56 | 38.85289 | -76.55842 | 6112 ft | 241 kts | 354° |
| 2026-05-07 00:56 | 38.86234 | -76.55870 | 5951 ft | 235 kts | 350° |
| 2026-05-07 00:57 | 38.88627 | -76.56087 | 5509 ft | 229 kts | 349° |
| 2026-05-07 00:57 | 38.89974 | -76.56203 | 5270 ft | 227 kts | 350° |
| 2026-05-07 00:57 | 38.91547 | -76.56330 | 4978 ft | 226 kts | 350° |
| 2026-05-07 00:57 | 38.93153 | -76.56510 | 4660 ft | 227 kts | 355° |
| 2026-05-07 00:58 | 38.94726 | -76.56416 | 4367 ft | 223 kts | 356° |
| 2026-05-07 00:58 | 38.96276 | -76.56355 | 4088 ft | 217 kts | 355° |
| 2026-05-07 00:58 | 38.97830 | -76.56360 | 3830 ft | 205 kts | 351° |
| 2026-05-07 00:58 | 38.99189 | -76.56495 | 3611 ft | 197 kts | 348° |
| 2026-05-07 00:59 | 39.01801 | -76.56796 | 3170 ft | 181 kts | 348° |
| 2026-05-07 00:59 | 39.03077 | -76.56927 | 2932 ft | 178 kts | 349° |
| 2026-05-07 00:59 | 39.04411 | -76.57062 | 2679 ft | 179 kts | 349° |
| 2026-05-07 01:00 | 39.05601 | -76.57178 | 2447 ft | 177 kts | 350° |
| 2026-05-07 01:00 | 39.06747 | -76.57414 | 2354 ft | 155 kts | 327° |
| 2026-05-07 01:00 | 39.07574 | -76.58158 | 2283 ft | 153 kts | 321° |
| 2026-05-07 01:00 | 39.07881 | -76.58408 | 2172 ft | 157 kts | 323° |
| 2026-05-07 01:01 | 39.09208 | -76.59535 | 1874 ft | 152 kts | 320° |
| 2026-05-07 01:01 | 39.09904 | -76.60174 | 1734 ft | 139 kts | 320° |
| 2026-05-07 01:01 | 39.10925 | -76.61126 | 1491 ft | 139 kts | 320° |
| 2026-05-07 01:01 | 39.11844 | -76.61981 | 1274 ft | 140 kts | 321° |
| 2026-05-07 01:02 | 39.12596 | -76.62680 | 1093 ft | 138 kts | 321° |
| 2026-05-07 01:02 | 39.13077 | -76.63127 | 977 ft | 137 kts | 321° |
| 2026-05-07 01:02 | 39.13762 | -76.63766 | 836 ft | 137 kts | 322° |
| 2026-05-07 01:02 | 39.14603 | -76.64550 | 660 ft | 146 kts | 323° |
| 2026-05-07 01:03 | 39.15714 | -76.65583 | 391 ft | 148 kts | 323° |
| 2026-05-07 01:03 | 39.16359 | -76.66179 | 219 ft | 145 kts | 323° |
| 2026-05-07 01:03 | 39.17066 | -76.66835 | 152 ft | 126 kts | 323° |
| 2026-05-07 01:03 | 39.17641 | -76.67375 | 145 ft | 64 kts | 324° |
| 2026-05-07 01:04 | 39.17952 | -76.67660 | 141 ft | 47 kts | 325° |
| 2026-05-07 01:04 | 39.18130 | -76.67748 | 143 ft | 14 kts | 16° |
| 2026-05-07 01:04 | 39.18166 | -76.67716 | 144 ft | 5 kts | 39° |
| 2026-05-07 01:04 | 39.18173 | -76.67708 | 145 ft | 0 kts | 42° |
| 2026-05-07 01:05 | 39.18177 | -76.67702 | 145 ft | 4 kts | 50° |
| 2026-05-07 01:06 | 39.18183 | -76.67689 | 145 ft | 7 kts | 61° |
| 2026-05-07 01:06 | 39.18167 | -76.67540 | 149 ft | 10 kts | 142° |
| 2026-05-07 01:06 | 39.18132 | -76.67505 | 151 ft | 1 kts | 126° |
| 2026-05-07 01:06 | 39.18136 | -76.67489 | 152 ft | 3 kts | 56° |
| 2026-05-07 01:07 | 39.18153 | -76.67481 | 154 ft | 6 kts | 12° |
| 2026-05-07 01:07 | 39.18175 | -76.67447 | 156 ft | 2 kts | 85° |
| 2026-05-07 01:07 | 39.18160 | -76.67422 | 155 ft | 6 kts | 146° |
| 2026-05-07 01:07 | 39.18152 | -76.67415 | 155 ft | 1 kts | 145° |
| 2026-05-07 01:08 | 39.18151 | -76.67415 | 155 ft | 0 kts | 144° |